CMXK1: Otter Creek At Climax

Data processed at Wed May 22 2019 23:30


All information presented herein is the property of the government of the United States of America and may be revised or deleted at any time without prior notice.
Dissemination of this information without the expressed written consent of the Public Affairs Office, Tulsa District U.S. Army Corps of Engineers is strictly prohibited.
These data are gathered electronically and, as presented, have not undergone any form of quality control. These data are not guaranteed to be valid or correct.
Go to home page.
Go to station list.
Go to home page.

Upstream stations:

Downstream station:
Previous Day
Next Day
Current Day
    
SHEF ID:       CMXK1     OTTER C AT CLIMAX, KS
STATION TYPE:  
Regulating: Stage =    19.00, Flow =     8581

               PRECIP     STAGE  STAGE(2)  RIV-FLOW  BAT-LOAD
                   in        ft        ft       cfs      volt
              Ccp-Rev   Ccp-Rev   Ccp-Rev   Ccp-Rev   Ccp-Rev
(US/Central)
05/22 00:00      0.00     10.02      ----      2730     13.05
05/22 01:00      0.00      9.79      ----      2617     12.97
05/22 02:00      0.00      9.65      ----      2549     12.97
05/22 03:00      0.00      9.52      ----      2486     12.97
05/22 04:00      0.00      9.40      ----      2429     12.97
05/22 05:00      0.00      9.33      ----      2396     12.89
05/22 06:00      0.00      9.25      ----      2359     12.89
05/22 07:00      0.00      9.17      ----      2321     12.89
05/22 08:00      0.00      9.13      ----      2303     12.89
05/22 09:00      0.00      9.08      ----      2280     13.53
05/22 10:00      0.00      9.04      ----      2261     13.84
05/22 11:00      0.00      9.01      ----      2247     14.00
05/22 12:00      0.00      8.98      ----      2234     14.08
05/22 13:00      0.00      8.96      ----      2224     14.00
05/22 14:00      0.00      8.95      ----      2220     14.00
05/22 15:00      0.09      8.92      ----      2206     13.44
05/22 16:00      0.14      8.93      ----      2211     13.21
05/22 17:00      0.12      8.96      ----      2224     13.53
05/22 18:00      0.05      9.03      ----      2257     13.44
05/22 19:00      0.00      9.13      ----      2303     13.37
05/22 20:00      0.00      9.15      ----      2312     13.05
05/22 21:00      0.00      9.11      ----      2293     12.97
05/22 22:00      0.00      9.13      ----      2303     13.05
05/22 23:00      0.00      9.10      ----      2289     13.05